createdAt,value
2023-12-17T00:00:14.042Z,11.10
2023-12-17T00:02:41.055Z,11.10
2023-12-17T00:05:08.574Z,11.10
2023-12-17T00:07:35.362Z,11.10
2023-12-17T00:10:02.152Z,11.10
2023-12-17T00:12:29.001Z,11.10
2023-12-17T00:14:55.932Z,11.10
2023-12-17T00:17:25.528Z,11.10
2023-12-17T00:19:52.331Z,11.00
2023-12-17T00:22:19.205Z,11.00
2023-12-17T00:24:47.142Z,11.00
2023-12-17T00:27:16.976Z,11.00
2023-12-17T00:29:43.954Z,11.00
2023-12-17T00:32:10.759Z,11.00
2023-12-17T00:34:37.996Z,11.00
2023-12-17T00:37:05.125Z,11.00
2023-12-17T00:39:31.907Z,10.90
2023-12-17T00:41:59.265Z,10.90
2023-12-17T00:44:26.213Z,10.90
2023-12-17T00:46:53.018Z,10.90
2023-12-17T00:49:22.788Z,10.90
2023-12-17T00:51:49.732Z,10.90
2023-12-17T00:54:16.668Z,10.90
2023-12-17T00:56:43.648Z,10.80
2023-12-17T00:59:10.495Z,10.80
2023-12-17T01:01:39.359Z,10.80
2023-12-17T01:04:06.178Z,10.90
2023-12-17T01:06:32.974Z,10.80
2023-12-17T01:08:59.842Z,10.80
2023-12-17T01:11:27.035Z,10.80
2023-12-17T01:13:53.856Z,10.80
2023-12-17T01:16:20.691Z,10.80
2023-12-17T01:18:47.806Z,10.80
2023-12-17T01:21:14.976Z,10.70
2023-12-17T01:23:42.002Z,10.70
2023-12-17T01:26:10.900Z,10.70
2023-12-17T01:28:38.269Z,10.70
2023-12-17T01:31:05.253Z,10.70
2023-12-17T01:33:32.406Z,10.70
2023-12-17T01:35:59.922Z,10.70
2023-12-17T01:38:26.761Z,10.80
2023-12-17T01:40:53.861Z,10.70
2023-12-17T01:43:20.752Z,10.70
2023-12-17T01:45:47.621Z,10.70
2023-12-17T01:48:14.675Z,10.70
2023-12-17T01:50:41.594Z,10.70
2023-12-17T01:53:08.427Z,10.70
2023-12-17T01:55:35.277Z,10.70
2023-12-17T01:58:04.012Z,10.80
2023-12-17T02:00:30.927Z,10.70
2023-12-17T02:02:57.847Z,10.70
2023-12-17T02:05:24.798Z,10.70
2023-12-17T02:07:51.598Z,10.70
2023-12-17T02:10:18.354Z,10.70
2023-12-17T02:12:45.347Z,10.70
2023-12-17T02:15:12.175Z,10.70
2023-12-17T02:17:39.317Z,10.70
2023-12-17T02:20:07.232Z,10.70
2023-12-17T02:22:34.586Z,10.70
2023-12-17T02:25:01.442Z,10.70
2023-12-17T02:27:28.289Z,10.70
2023-12-17T02:29:55.585Z,10.70
2023-12-17T02:32:23.440Z,10.70
2023-12-17T02:34:51.125Z,10.70
2023-12-17T02:37:18.352Z,10.70
2023-12-17T02:39:45.141Z,10.70
2023-12-17T02:42:12.049Z,10.70
2023-12-17T02:44:38.969Z,10.70
2023-12-17T02:47:05.814Z,10.70
2023-12-17T02:49:33.390Z,10.60
2023-12-17T02:52:00.397Z,10.60
2023-12-17T02:54:27.383Z,10.60
2023-12-17T02:56:54.321Z,10.60
2023-12-17T02:59:21.298Z,10.60
2023-12-17T03:01:48.273Z,10.60
2023-12-17T03:04:15.317Z,10.60
2023-12-17T03:06:42.307Z,10.60
2023-12-17T03:09:09.241Z,10.60
2023-12-17T03:11:36.095Z,10.60
2023-12-17T03:14:05.550Z,10.50
2023-12-17T03:16:32.410Z,10.60
2023-12-17T03:18:59.453Z,10.60
2023-12-17T03:21:28.084Z,10.50
2023-12-17T03:23:55.110Z,10.50
2023-12-17T03:26:22.210Z,10.50
2023-12-17T03:28:49.040Z,10.50
2023-12-17T03:31:16.894Z,10.50
2023-12-17T03:33:44.384Z,10.40
2023-12-17T03:36:15.767Z,10.40
2023-12-17T03:38:43.424Z,10.40
2023-12-17T03:41:22.540Z,10.40
2023-12-17T03:43:53.874Z,10.40
2023-12-17T03:46:21.335Z,10.40
2023-12-17T03:48:48.385Z,10.40
2023-12-17T03:51:15.727Z,10.40
2023-12-17T03:53:42.657Z,10.40
2023-12-17T03:56:13.197Z,10.40
2023-12-17T03:58:40.217Z,10.40
2023-12-17T04:01:07.883Z,10.40
2023-12-17T04:03:35.131Z,10.40
2023-12-17T04:06:03.546Z,10.30
2023-12-17T04:08:30.585Z,10.30
2023-12-17T04:10:57.508Z,10.40
2023-12-17T04:13:24.498Z,10.30
2023-12-17T04:15:51.657Z,10.30
2023-12-17T04:18:21.844Z,10.30
2023-12-17T04:20:49.585Z,10.30
2023-12-17T04:23:16.519Z,10.50
2023-12-17T04:25:43.331Z,10.30
2023-12-17T04:28:13.839Z,10.30
2023-12-17T04:30:40.992Z,10.30
2023-12-17T04:33:09.343Z,10.30
2023-12-17T04:35:44.372Z,10.30
2023-12-17T04:38:11.933Z,10.20
2023-12-17T04:40:46.599Z,10.30
2023-12-17T04:43:17.018Z,10.30
2023-12-17T04:45:46.997Z,10.30
2023-12-17T04:48:14.708Z,10.20
2023-12-17T04:50:41.610Z,10.20
2023-12-17T04:53:08.596Z,10.30
2023-12-17T04:55:35.682Z,10.30
2023-12-17T04:58:02.654Z,10.30
2023-12-17T05:00:30.445Z,10.30
2023-12-17T05:03:34.821Z,10.30
2023-12-17T05:09:17.580Z,10.30
2023-12-17T05:13:01.241Z,10.10
2023-12-17T05:15:32.632Z,10.20
2023-12-17T05:21:09.677Z,10.20
2023-12-17T05:23:46.086Z,10.20
2023-12-17T05:26:27.022Z,10.20
2023-12-17T05:28:57.587Z,10.20
2023-12-17T05:31:27.320Z,10.20
2023-12-17T05:34:21.214Z,10.20
2023-12-17T05:36:48.339Z,10.20
2023-12-17T05:39:15.347Z,10.10
2023-12-17T05:41:45.383Z,10.10
2023-12-17T05:44:12.698Z,10.10
2023-12-17T05:46:39.554Z,10.00
2023-12-17T05:49:22.417Z,10.10
2023-12-17T05:51:51.758Z,10.00
2023-12-17T05:54:27.000Z,10.00
2023-12-17T05:56:54.227Z,10.00
2023-12-17T05:59:21.047Z,10.00
2023-12-17T06:01:49.919Z,10.00
2023-12-17T06:04:16.834Z,9.90
2023-12-17T06:06:43.866Z,9.90
2023-12-17T06:09:10.803Z,10.00
2023-12-17T06:11:37.863Z,9.90
2023-12-17T06:14:05.203Z,9.90
2023-12-17T06:16:32.195Z,9.90
2023-12-17T06:18:59.267Z,9.90
2023-12-17T06:21:27.138Z,9.90
2023-12-17T06:23:59.049Z,9.90
2023-12-17T06:26:26.661Z,9.90
2023-12-17T06:28:53.683Z,9.90
2023-12-17T06:31:20.761Z,9.90
2023-12-17T06:33:48.110Z,9.90
2023-12-17T06:36:15.377Z,9.90
2023-12-17T06:38:42.337Z,9.90
2023-12-17T06:41:09.701Z,9.90
2023-12-17T06:43:37.598Z,9.90
2023-12-17T06:46:05.699Z,9.90
2023-12-17T06:48:32.781Z,9.90
2023-12-17T06:51:01.354Z,9.90
2023-12-17T06:53:30.895Z,9.90
2023-12-17T06:55:57.986Z,9.90
2023-12-17T06:58:24.790Z,9.90
2023-12-17T07:00:51.632Z,10.00
2023-12-17T07:03:28.039Z,10.00
2023-12-17T07:05:55.213Z,10.00
2023-12-17T07:08:22.148Z,10.00
2023-12-17T07:10:49.047Z,10.10
2023-12-17T07:13:16.577Z,10.00
2023-12-17T07:15:45.266Z,10.00
2023-12-17T07:18:12.150Z,10.10
2023-12-17T07:20:39.187Z,10.00
2023-12-17T07:23:05.958Z,10.00
2023-12-17T07:25:35.557Z,10.00
2023-12-17T07:28:02.387Z,10.00
2023-12-17T07:30:29.332Z,10.00
2023-12-17T07:32:56.746Z,10.00
2023-12-17T07:35:23.888Z,10.00
2023-12-17T07:37:50.882Z,10.00
2023-12-17T07:40:17.680Z,9.90
2023-12-17T07:42:44.493Z,9.90
2023-12-17T07:45:11.653Z,9.90
2023-12-17T07:47:39.167Z,9.90
2023-12-17T07:50:07.360Z,9.80
2023-12-17T07:52:34.158Z,9.80
2023-12-17T07:55:01.128Z,9.80
2023-12-17T07:57:27.980Z,9.80
2023-12-17T07:59:55.010Z,9.70
2023-12-17T08:02:21.972Z,9.70
2023-12-17T08:04:49.350Z,9.60
2023-12-17T08:07:16.451Z,9.70
2023-12-17T08:09:43.790Z,9.70
2023-12-17T08:12:11.115Z,9.70
2023-12-17T08:14:38.068Z,9.70
2023-12-17T08:17:04.922Z,9.70
2023-12-17T08:19:31.715Z,9.70
2023-12-17T08:21:58.931Z,9.70
2023-12-17T08:24:26.303Z,9.70
2023-12-17T08:26:56.059Z,9.70
2023-12-17T08:29:23.037Z,9.70
2023-12-17T08:31:49.898Z,9.70
2023-12-17T08:34:16.949Z,9.70
2023-12-17T08:36:46.458Z,9.80
2023-12-17T08:39:13.440Z,9.80
2023-12-17T08:41:40.686Z,9.80
2023-12-17T08:44:07.626Z,9.80
2023-12-17T08:46:35.203Z,9.80
2023-12-17T08:49:03.672Z,9.80
2023-12-17T08:51:30.895Z,9.80
2023-12-17T08:53:57.837Z,9.80
2023-12-17T08:56:24.767Z,9.80
2023-12-17T08:58:51.541Z,9.80
2023-12-17T09:01:19.519Z,9.80
2023-12-17T09:03:46.552Z,9.80
2023-12-17T09:06:13.791Z,9.90
2023-12-17T09:08:40.649Z,9.90
2023-12-17T09:11:07.570Z,9.90
2023-12-17T09:13:34.408Z,9.90
2023-12-17T09:16:01.281Z,9.90
2023-12-17T09:18:28.228Z,9.90
2023-12-17T09:20:55.146Z,10.00
2023-12-17T09:23:22.198Z,10.00
2023-12-17T09:25:49.125Z,10.00
2023-12-17T09:28:16.081Z,10.00
2023-12-17T09:30:43.758Z,10.10
2023-12-17T09:33:11.544Z,10.10
2023-12-17T09:35:39.403Z,10.10
2023-12-17T09:38:11.863Z,10.20
2023-12-17T09:40:42.680Z,10.20
2023-12-17T09:43:10.098Z,10.20
2023-12-17T09:45:37.709Z,10.30
2023-12-17T09:48:04.790Z,10.30
2023-12-17T09:50:31.740Z,10.40
2023-12-17T09:52:58.549Z,10.40
2023-12-17T09:55:25.605Z,10.40
2023-12-17T09:57:52.750Z,10.40
2023-12-17T10:00:19.878Z,10.40
2023-12-17T10:02:47.105Z,10.50
2023-12-17T10:05:14.021Z,10.50
2023-12-17T10:07:41.373Z,10.50
2023-12-17T10:10:09.232Z,10.50
2023-12-17T10:12:37.026Z,10.60
2023-12-17T10:15:04.427Z,10.60
2023-12-17T10:17:31.442Z,10.60
2023-12-17T10:19:58.428Z,10.70
2023-12-17T10:22:25.750Z,10.60
2023-12-17T10:24:52.661Z,10.70
2023-12-17T10:27:20.777Z,10.70
2023-12-17T10:29:54.119Z,10.80
2023-12-17T10:32:25.126Z,10.80
2023-12-17T10:34:53.107Z,10.80
2023-12-17T10:37:21.810Z,10.80
2023-12-17T10:39:51.899Z,10.80
2023-12-17T10:42:19.488Z,10.90
2023-12-17T10:44:50.773Z,10.90
2023-12-17T10:47:23.144Z,10.90
2023-12-17T10:49:50.146Z,10.90
2023-12-17T10:52:17.219Z,11.00
2023-12-17T10:54:44.276Z,11.00
2023-12-17T10:57:13.586Z,11.00
2023-12-17T11:00:17.241Z,11.00
2023-12-17T11:02:44.895Z,10.90
2023-12-17T11:05:13.604Z,11.00
2023-12-17T11:07:40.714Z,11.00
2023-12-17T11:10:08.580Z,11.00
2023-12-17T11:12:36.031Z,11.10
2023-12-17T11:15:03.311Z,11.10
2023-12-17T11:17:30.345Z,11.10
2023-12-17T11:20:04.895Z,11.10
2023-12-17T11:22:35.765Z,11.10
2023-12-17T11:25:02.565Z,11.10
2023-12-17T11:27:31.494Z,11.10
2023-12-17T11:29:59.071Z,11.10
2023-12-17T11:32:29.003Z,11.10
2023-12-17T11:34:57.239Z,11.20
2023-12-17T11:37:25.542Z,11.20
2023-12-17T11:39:53.944Z,11.20
2023-12-17T11:42:21.198Z,11.20
2023-12-17T11:44:52.216Z,11.30
2023-12-17T11:47:26.270Z,11.30
2023-12-17T11:49:58.050Z,11.40
2023-12-17T11:52:24.940Z,11.30
2023-12-17T11:54:59.398Z,11.30
2023-12-17T11:57:27.030Z,11.40
2023-12-17T11:59:54.174Z,11.40
2023-12-17T12:02:23.119Z,11.40
2023-12-17T12:04:53.278Z,11.40
2023-12-17T12:07:20.601Z,11.50
2023-12-17T12:09:48.019Z,11.50
2023-12-17T12:12:22.319Z,11.60
2023-12-17T12:14:50.947Z,11.60
2023-12-17T12:17:43.121Z,11.60
2023-12-17T12:20:11.456Z,11.60
2023-12-17T12:22:51.222Z,11.60
2023-12-17T12:25:21.720Z,11.60
2023-12-17T12:27:48.946Z,11.70
2023-12-17T12:30:26.909Z,11.60
2023-12-17T12:32:54.013Z,11.60
2023-12-17T12:35:30.777Z,11.60
2023-12-17T12:38:01.005Z,11.50
2023-12-17T12:40:33.138Z,11.50
2023-12-17T12:43:03.983Z,11.50
2023-12-17T12:45:33.081Z,11.50
2023-12-17T12:48:03.356Z,11.50
2023-12-17T12:50:34.348Z,11.50
2023-12-17T12:53:11.975Z,11.40
2023-12-17T12:55:43.152Z,11.40
2023-12-17T12:58:10.280Z,11.40
2023-12-17T13:00:37.735Z,11.40
2023-12-17T13:03:05.573Z,11.40
2023-12-17T13:05:32.820Z,11.40
2023-12-17T13:07:59.795Z,11.40
2023-12-17T13:10:26.960Z,11.40
2023-12-17T13:12:54.175Z,11.40
2023-12-17T13:15:21.436Z,11.40
2023-12-17T13:17:48.483Z,11.40
2023-12-17T13:20:15.891Z,11.40
2023-12-17T13:22:44.761Z,11.40
2023-12-17T13:25:14.913Z,11.40
2023-12-17T13:27:45.951Z,11.40
2023-12-17T13:30:14.023Z,11.40
2023-12-17T13:32:41.590Z,11.40
2023-12-17T13:35:10.679Z,11.30
2023-12-17T13:37:38.843Z,11.20
2023-12-17T13:40:06.995Z,11.30
2023-12-17T13:42:34.593Z,11.30
2023-12-17T13:45:01.862Z,11.30
2023-12-17T13:47:29.234Z,11.30
2023-12-17T13:50:02.536Z,11.30
2023-12-17T13:52:29.927Z,11.30
2023-12-17T13:54:57.429Z,11.30
2023-12-17T13:57:30.529Z,11.30
2023-12-17T13:59:58.607Z,11.30
2023-12-17T14:02:29.169Z,11.30
2023-12-17T14:05:06.678Z,11.30
2023-12-17T14:07:38.902Z,11.30
2023-12-17T14:10:06.510Z,11.30
2023-12-17T14:12:34.004Z,11.30
2023-12-17T14:15:22.111Z,11.30
2023-12-17T14:17:49.224Z,11.30
2023-12-17T14:20:22.985Z,11.20
2023-12-17T14:22:52.952Z,11.20
2023-12-17T14:25:20.534Z,11.20
2023-12-17T14:27:50.557Z,11.20
2023-12-17T14:30:17.883Z,11.20
2023-12-17T14:32:45.281Z,11.20
2023-12-17T14:35:12.656Z,11.20
2023-12-17T14:37:39.559Z,11.10
2023-12-17T14:40:09.721Z,11.10
2023-12-17T14:42:38.098Z,11.10
2023-12-17T14:45:09.505Z,11.10
2023-12-17T14:50:17.817Z,11.00
2023-12-17T14:52:45.016Z,11.10
2023-12-17T14:55:12.219Z,11.10
2023-12-17T14:57:39.354Z,11.10
2023-12-17T15:00:07.007Z,11.10
2023-12-17T15:02:34.305Z,11.00
2023-12-17T15:05:02.463Z,10.90
2023-12-17T15:07:29.769Z,10.90
2023-12-17T15:10:01.246Z,10.80
2023-12-17T15:12:28.477Z,10.80
2023-12-17T15:14:55.821Z,10.80
2023-12-17T15:17:23.189Z,10.70
2023-12-17T15:19:53.410Z,10.70
2023-12-17T15:22:20.424Z,10.70
2023-12-17T15:24:49.036Z,10.70
2023-12-17T15:27:16.100Z,10.70
2023-12-17T15:29:43.829Z,10.70
2023-12-17T15:32:11.068Z,10.70
2023-12-17T15:34:38.446Z,10.70
2023-12-17T15:37:05.453Z,10.60
2023-12-17T15:39:33.545Z,10.60
2023-12-17T15:42:07.143Z,10.60
2023-12-17T15:44:36.679Z,10.60
2023-12-17T15:47:03.613Z,10.50
2023-12-17T15:49:30.719Z,10.60
2023-12-17T15:51:57.885Z,10.50
2023-12-17T15:54:26.339Z,10.50
2023-12-17T15:56:53.317Z,10.40
2023-12-17T15:59:20.733Z,10.50
2023-12-17T16:01:47.982Z,10.50
2023-12-17T16:04:15.413Z,10.50
2023-12-17T16:06:42.781Z,10.50
2023-12-17T16:09:09.955Z,10.60
2023-12-17T16:11:40.474Z,10.60
2023-12-17T16:14:08.913Z,10.60
2023-12-17T16:16:35.831Z,10.60
2023-12-17T16:19:06.606Z,10.60
2023-12-17T16:21:34.295Z,10.60
2023-12-17T16:24:01.615Z,10.60
2023-12-17T16:26:28.932Z,10.60
2023-12-17T16:28:56.120Z,10.60
2023-12-17T16:31:25.633Z,10.60
2023-12-17T16:33:53.376Z,10.50
2023-12-17T16:36:20.785Z,10.60
2023-12-17T16:38:48.134Z,10.60
2023-12-17T16:41:15.820Z,10.60
2023-12-17T16:43:43.354Z,10.70
2023-12-17T16:46:10.724Z,10.70
2023-12-17T16:48:37.842Z,10.70
2023-12-17T16:51:06.974Z,10.70
2023-12-17T16:53:34.055Z,10.70
2023-12-17T16:56:00.991Z,10.70
2023-12-17T16:58:28.123Z,10.70
2023-12-17T17:00:56.832Z,10.70
2023-12-17T17:03:24.269Z,10.70
2023-12-17T17:05:51.206Z,10.70
2023-12-17T17:08:23.785Z,10.80
2023-12-17T17:10:50.777Z,10.80
2023-12-17T17:13:18.260Z,10.70
2023-12-17T17:15:45.200Z,10.80
2023-12-17T17:18:12.474Z,10.80
2023-12-17T17:20:39.567Z,10.80
2023-12-17T17:23:06.365Z,10.80
2023-12-17T17:25:33.442Z,10.80
2023-12-17T17:28:17.473Z,10.80
2023-12-17T17:30:44.688Z,10.80
2023-12-17T17:33:14.814Z,10.80
2023-12-17T17:35:42.135Z,10.80
2023-12-17T17:38:11.673Z,10.70
2023-12-17T17:40:40.430Z,10.80
2023-12-17T17:43:07.991Z,10.70
2023-12-17T17:45:35.127Z,10.70
2023-12-17T17:48:02.447Z,10.70
2023-12-17T17:50:29.508Z,10.70
2023-12-17T17:52:56.448Z,10.70
2023-12-17T17:55:23.387Z,10.70
2023-12-17T17:57:50.415Z,10.70
2023-12-17T18:00:17.561Z,10.70
2023-12-17T18:02:47.262Z,10.70
2023-12-17T18:05:16.067Z,10.70
2023-12-17T18:07:42.966Z,10.60
2023-12-17T18:10:10.508Z,10.70
2023-12-17T18:12:37.503Z,10.70
2023-12-17T18:15:05.365Z,10.70
2023-12-17T18:17:32.532Z,10.70
2023-12-17T18:20:01.260Z,10.70
2023-12-17T18:22:30.411Z,10.80
2023-12-17T18:24:57.502Z,10.80
2023-12-17T18:27:24.710Z,10.80
2023-12-17T18:29:51.598Z,10.90
2023-12-17T18:32:18.884Z,10.80
2023-12-17T18:34:45.727Z,10.90
2023-12-17T18:37:14.000Z,10.90
2023-12-17T18:40:00.404Z,10.90
2023-12-17T18:42:27.414Z,10.80
2023-12-17T18:44:54.427Z,10.90
2023-12-17T18:47:27.974Z,10.90
2023-12-17T18:49:57.753Z,10.90
2023-12-17T18:52:24.626Z,10.90
2023-12-17T18:55:02.357Z,10.90
2023-12-17T18:57:30.591Z,10.90
2023-12-17T18:59:58.314Z,10.90
2023-12-17T19:02:25.744Z,10.90
2023-12-17T19:04:52.826Z,10.90
2023-12-17T19:07:22.551Z,10.90
2023-12-17T19:09:52.324Z,10.90
2023-12-17T19:12:20.034Z,10.90
2023-12-17T19:14:47.853Z,10.90
2023-12-17T19:17:16.615Z,10.90
2023-12-17T19:19:44.864Z,10.90
2023-12-17T19:22:11.833Z,10.90
2023-12-17T19:24:39.048Z,10.90
2023-12-17T19:27:05.989Z,10.90
2023-12-17T19:29:36.184Z,10.90
2023-12-17T19:32:03.757Z,10.90
2023-12-17T19:34:41.923Z,10.90
2023-12-17T19:37:09.354Z,10.90
2023-12-17T19:39:39.549Z,10.90
2023-12-17T19:42:07.951Z,10.90
2023-12-17T19:44:35.541Z,10.90
2023-12-17T19:47:02.671Z,10.90
2023-12-17T19:49:31.357Z,10.90
2023-12-17T19:52:00.904Z,10.90
2023-12-17T19:54:27.850Z,10.90
2023-12-17T19:56:54.946Z,10.90
2023-12-17T19:59:21.983Z,10.90
2023-12-17T20:01:49.321Z,10.90
2023-12-17T20:04:16.629Z,10.90
2023-12-17T20:06:43.740Z,10.90
2023-12-17T20:09:10.806Z,11.00
2023-12-17T20:11:44.019Z,11.00
2023-12-17T20:14:11.142Z,11.00
2023-12-17T20:16:40.305Z,11.00
2023-12-17T20:19:07.843Z,11.00
2023-12-17T20:21:35.417Z,11.00
2023-12-17T20:24:05.122Z,10.90
2023-12-17T20:26:32.013Z,11.00
2023-12-17T20:28:58.819Z,10.90
2023-12-17T20:31:25.980Z,11.00
2023-12-17T20:33:52.884Z,10.90
2023-12-17T20:36:19.774Z,11.00
2023-12-17T20:38:46.649Z,11.00
2023-12-17T20:41:18.389Z,11.00
2023-12-17T20:43:51.675Z,10.90
2023-12-17T20:46:19.462Z,11.00
2023-12-17T20:48:46.993Z,11.00
2023-12-17T20:51:14.151Z,11.00
2023-12-17T20:53:41.106Z,10.90
2023-12-17T20:56:07.929Z,11.00
2023-12-17T20:58:36.352Z,10.90
2023-12-17T21:01:03.706Z,10.90
2023-12-17T21:03:33.370Z,10.90
2023-12-17T21:06:02.344Z,10.90
2023-12-17T21:08:29.309Z,11.00
2023-12-17T21:10:56.679Z,11.00
2023-12-17T21:13:32.141Z,11.00
2023-12-17T21:16:02.211Z,11.00
2023-12-17T21:18:32.626Z,10.90
2023-12-17T21:21:14.989Z,11.00
2023-12-17T21:23:44.975Z,11.00
2023-12-17T21:26:12.115Z,11.00
2023-12-17T21:28:39.459Z,11.00
2023-12-17T21:31:07.149Z,11.00
2023-12-17T21:33:37.871Z,11.00
2023-12-17T21:36:05.758Z,11.00
2023-12-17T21:38:33.057Z,11.00
2023-12-17T21:41:03.139Z,11.00
2023-12-17T21:46:17.595Z,11.00
2023-12-17T21:48:47.692Z,11.00
2023-12-17T21:51:28.271Z,10.90
2023-12-17T21:53:58.861Z,10.90
2023-12-17T21:56:29.512Z,10.90
2023-12-17T21:58:57.083Z,10.90
2023-12-17T22:01:31.324Z,10.90
2023-12-17T22:04:01.366Z,10.90
2023-12-17T22:06:32.262Z,10.90
2023-12-17T22:09:06.047Z,10.90
2023-12-17T22:11:33.282Z,11.00
2023-12-17T22:14:00.410Z,11.00
2023-12-17T22:16:27.810Z,11.00
2023-12-17T22:18:54.771Z,11.00
2023-12-17T22:21:22.679Z,11.00
2023-12-17T22:23:49.615Z,11.00
2023-12-17T22:26:16.737Z,11.00
2023-12-17T22:28:43.577Z,11.00
2023-12-17T22:31:14.167Z,11.00
2023-12-17T22:33:41.571Z,11.00
2023-12-17T22:36:08.506Z,11.00
2023-12-17T22:38:36.093Z,11.00
2023-12-17T22:41:03.339Z,10.90
2023-12-17T22:43:32.790Z,10.90
2023-12-17T22:45:59.852Z,11.00
2023-12-17T22:48:27.135Z,10.90
2023-12-17T22:50:54.144Z,10.90
2023-12-17T22:53:21.087Z,10.90
2023-12-17T22:55:49.320Z,11.00
2023-12-17T22:58:19.461Z,11.00
2023-12-17T23:00:46.631Z,10.90
2023-12-17T23:03:13.675Z,10.90
2023-12-17T23:05:40.690Z,11.00
2023-12-17T23:08:10.559Z,10.90
2023-12-17T23:10:37.692Z,10.90
2023-12-17T23:13:04.992Z,10.90
2023-12-17T23:15:35.249Z,10.90
2023-12-17T23:18:02.275Z,10.90
2023-12-17T23:20:29.202Z,10.90
2023-12-17T23:22:56.610Z,10.90
2023-12-17T23:25:24.814Z,10.90
2023-12-17T23:27:52.060Z,10.90
2023-12-17T23:30:20.194Z,10.90
2023-12-17T23:32:47.236Z,10.90
2023-12-17T23:35:16.583Z,10.90
2023-12-17T23:37:45.450Z,10.90
2023-12-17T23:40:13.564Z,10.90
2023-12-17T23:42:40.466Z,10.90
2023-12-17T23:45:12.429Z,10.90
2023-12-17T23:47:40.173Z,10.90
2023-12-17T23:50:08.032Z,10.90
2023-12-17T23:52:35.757Z,10.90
2023-12-17T23:55:03.629Z,10.90
2023-12-17T23:57:30.695Z,10.90
2023-12-17T23:59:57.760Z,10.80
